Latest Coastal Weather Observations for Lockhart River

IDQ60701

Issued at 4:05 am EST Saturday 30 August 2014 (issued every 10 minutes, with the page automatically refreshed every 10 minutes)

About coastal observations | Map of coastal stations | Coastal observations for QLD | Marine services | Other Formats
Station Details ID: 028008 Name: LOCKHART RIVER AIRPORT Lat: -12.79 Lon: 143.30 Height: 18.5 m
Data from the previous 72 hours. | See also: Recent months at Lockhart River
Date/Time
EST
Temp

°C
Wind Pressure Rain
since 9am
mm
Weather Cloud Vis
km
Sea
Height
m
Swell
Dir
 
Speed
knots
Gust
knots
hPa Trend Height
m
Period
s
Dir
30/04:00am 23.4 ESE 9 13 1013.9 - 0.0 - Partly cloudy - - - - -
30/03:30am 23.4 ESE 9 12 1014.0 - 0.0 - Partly cloudy - - - - -
30/03:00am 23.3 ESE 9 12 1014.0 - 0.0 - Partly cloudy - - - - -
30/02:30am 23.4 ESE 10 15 1014.1 - 0.0 - Partly cloudy - - - - -
30/02:00am 23.4 ESE 9 12 1014.2 - 0.0 - Partly cloudy - - - - -
30/01:30am 23.4 ESE 9 12 1014.5 - 0.0 - Partly cloudy - - - - -
30/01:00am 23.4 ESE 10 13 1014.9 - 0.0 - Partly cloudy - - - - -
30/12:30am 23.4 ESE 11 17 1015.3 - 0.0 - Partly cloudy - - - - -
30/12:00am 23.4 ESE 12 16 1015.4 - 0.0 - Partly cloudy - - - - -
 
Date/Time
EST
Temp

°C
Wind Pressure Rain
since 9am
mm
Weather Cloud Vis
km
Sea
Height
m
Swell
Dir
 
Speed
knots
Gust
knots
hPa Trend Height
m
Period
s
Dir
29/11:30pm 23.5 SE 14 20 1015.5 - 0.0 - Partly cloudy - - - - -
29/11:00pm 23.6 SE 13 17 1015.6 - 0.0 - Cloudy - - - - -
29/10:30pm 23.5 SE 13 20 1015.4 - 0.0 - Partly cloudy - - - - -
29/10:00pm 23.5 SE 14 20 1015.5 - 0.0 - - - - - - -
29/09:30pm 23.4 SE 12 17 1015.5 - 0.0 - Partly cloudy - - - - -
29/09:00pm 23.3 ESE 10 14 1015.5 - 0.0 - Partly cloudy - - - - -
29/08:30pm 23.3 ESE 11 18 1015.3 - 0.0 - Partly cloudy - - - - -
29/08:00pm 23.3 ESE 10 15 1015.2 - 0.0 - Partly cloudy - - - - -
29/07:30pm 23.2 ESE 10 13 1014.7 - 0.0 - Partly cloudy - - - - -
29/07:00pm 23.5 ESE 12 16 1014.4 - 0.0 - Partly cloudy - - - - -
29/06:30pm 23.5 ESE 11 15 1014.2 - 0.0 - - - - - - -
29/06:00pm 23.8 SE 16 25 1013.9 - 0.0 - Partly cloudy - - - - -
29/05:30pm 24.4 ESE 13 22 1013.8 - 0.0 - Partly cloudy - - - - -
29/05:00pm 25.6 SE 15 23 1013.7 - 0.0 - Partly cloudy - - - - -
29/04:30pm 25.7 ESE 14 21 1013.4 - 0.0 - Partly cloudy - - - - -
29/04:00pm 25.7 ESE 16 24 1013.5 - 0.0 - Partly cloudy - - - - -
29/03:30pm 25.4 ESE 17 24 1013.7 - 0.0 - Partly cloudy - - - - -
29/03:02pm 26.2 ESE 15 25 1013.7 - 0.0 - Partly cloudy - - - - -
29/03:00pm 25.9 ESE 16 25 1013.6 - 0.0 Fine Partly cloudy 30 - - - -
29/02:38pm 26.9 ESE 17 27 1014.0 - 0.0 - Partly cloudy - - - - -
29/02:30pm 27.3 ESE 15 21 1014.1 - 0.0 - Partly cloudy - - - - -
29/02:13pm 27.2 ESE 15 25 1014.2 - 0.0 - Partly cloudy - - - - -
29/02:00pm 26.3 ESE 16 24 1014.3 - 0.0 - Partly cloudy - - - - -
29/01:54pm 25.9 ESE 15 25 1014.3 - 0.0 - Partly cloudy - - - - -
29/01:30pm 27.0 ESE 18 24 1014.5 - 0.0 - Partly cloudy - - - - -
29/01:00pm 26.2 ESE 15 23 1014.7 - 0.0 - Partly cloudy - - - - -
29/12:30pm 26.2 ESE 13 23 1015.0 - 0.0 - Partly cloudy - - - - -
29/12:00pm 26.1 ESE 16 24 1015.3 - 0.0 - Partly cloudy - - - - -
29/11:30am 25.7 ESE 14 23 1015.9 - 0.0 - Partly cloudy - - - - -
29/11:00am 25.5 ESE 16 27 1016.2 - 0.0 - Partly cloudy - - - - -
29/10:55am 25.1 ESE 15 27 1016.2 - 0.0 - Partly cloudy - - - - -
29/10:30am 25.7 ESE 16 22 1016.3 - 0.0 - Partly cloudy - - - - -
29/10:00am 25.8 ESE 16 22 1016.3 - 0.0 - Partly cloudy - - - - -
29/09:45am 25.1 ESE 17 27 1016.2 - 0.0 - Partly cloudy - - - - -
29/09:30am 24.9 ESE 14 22 1016.2 - 0.0 - Partly cloudy - - - - -
29/09:15am 24.7 ESE 15 25 1016.0 - 0.0 - Partly cloudy - - - - -
29/09:00am 24.2 ESE 14 20 1016.0 - 0.0 Fine Partly cloudy 30 - - - -
29/08:30am 24.0 ESE 14 22 1015.9 - 0.0 - Partly cloudy - - - - -
29/08:00am 23.6 ESE 11 18 1015.5 - 0.0 - Partly cloudy - - - - -
29/07:30am 22.8 ESE 10 16 1015.1 - 0.0 - Partly cloudy - - - - -
29/07:00am 22.2 ESE 11 15 1014.9 - 0.0 - Partly cloudy - - - - -
29/06:30am 21.9 ESE 9 13 1014.8 - 0.0 - Partly cloudy - - - - -
29/06:00am 22.0 ESE 10 14 1014.4 - 0.0 - Partly cloudy - - - - -
29/05:30am 21.9 SE 10 14 1014.7 - 0.0 - Partly cloudy - - - - -
29/05:00am 21.9 ESE 10 15 1014.6 - 0.0 - Partly cloudy - - - - -
29/04:30am 22.0 ESE 11 18 1014.5 - 0.0 - Partly cloudy - - - - -
29/04:00am 22.2 ESE 10 13 1014.5 - 0.0 - Partly cloudy - - - - -
29/03:30am 22.1 ESE 11 15 1014.5 - 0.0 - Partly cloudy - - - - -
29/03:00am 22.0 ESE 9 16 1014.5 - 0.0 - Partly cloudy - - - - -
29/02:30am 22.0 SE 9 13 1014.9 - 0.0 - Partly cloudy - - - - -
29/02:00am 22.2 ESE 10 15 1015.3 - 0.0 - Partly cloudy - - - - -
29/01:30am 22.0 SE 9 14 1015.3 - 0.0 - Partly cloudy - - - - -
29/01:00am 21.6 SE 7 11 1015.6 - 0.0 - Partly cloudy - - - - -
29/12:30am 21.6 SE 8 9 1015.7 - 0.0 - Partly cloudy - - - - -
29/12:00am 21.9 SE 7 10 1016.0 - 0.0 - Partly cloudy - - - - -
 
Date/Time
EST
Temp

°C
Wind Pressure Rain
since 9am
mm
Weather Cloud Vis
km
Sea
Height
m
Swell
Dir
 
Speed
knots
Gust
knots
hPa Trend Height
m
Period
s
Dir
28/11:30pm 22.1 ESE 7 11 1016.2 - 0.0 - Partly cloudy - - - - -
28/11:00pm 22.0 SE 7 10 1016.2 - 0.0 - Partly cloudy - - - - -
28/10:30pm 22.2 ESE 8 11 1016.2 - 0.0 - Partly cloudy - - - - -
28/10:00pm 21.6 SE 7 9 1015.9 - 0.0 - Partly cloudy - - - - -
28/09:30pm 21.8 ESE 7 10 1016.0 - 0.0 - - - - - - -
28/09:00pm 22.0 SE 7 9 1015.7 - 0.0 - - - - - - -
28/08:30pm 22.2 SE 8 11 1015.5 - 0.0 - - - - - - -
28/08:00pm 22.4 SE 8 13 1015.3 - 0.0 - - - - - - -
28/07:30pm 22.5 SE 8 11 1015.0 - 0.0 - Partly cloudy - - - - -
28/07:00pm 23.1 SE 9 13 1014.9 - 0.0 - Partly cloudy - - - - -
28/06:30pm 23.5 SE 12 15 1014.6 - 0.0 - Partly cloudy - - - - -
28/06:00pm 24.0 SE 14 19 1014.3 - 0.0 - Partly cloudy - - - - -
28/05:30pm 24.8 ESE 13 20 1014.1 - 0.0 - Partly cloudy - - - - -
28/05:00pm 25.7 SE 16 21 1014.0 - 0.0 - - - - - - -
28/04:30pm 25.8 SE 16 23 1013.8 - 0.0 - - - - - - -
28/04:00pm 26.0 ESE 15 21 1013.7 - 0.0 - - - - - - -
28/03:30pm 26.3 ESE 15 21 1013.7 - 0.0 - Partly cloudy - - - - -
28/03:00pm 26.7 ESE 15 23 1013.7 - 0.0 Fine Partly cloudy 30 - - - -
28/02:55pm 26.9 ESE 15 25 1013.8 - 0.0 - - - - - - -
28/02:30pm 27.0 ESE 14 21 1014.0 - 0.0 - - - - - - -
28/02:00pm 27.3 ESE 16 22 1014.3 - 0.0 - - - - - - -
28/01:30pm 26.2 ESE 17 26 1014.5 - 0.0 - - - - - - -
28/01:00pm 26.9 ESE 16 23 1014.8 - 0.0 - - - - - - -
28/12:40pm 26.9 ESE 16 26 1014.9 - 0.0 - - - - - - -
28/12:30pm 27.7 SE 17 25 1015.1 - 0.0 - - - - - - -
28/12:13pm 27.1 ESE 15 25 1015.2 - 0.0 - - - - - - -
28/12:00pm 26.9 E 15 20 1015.2 - 0.0 - - - - - - -
28/11:42am 26.6 ESE 15 25 1015.4 - 0.0 - - - - - - -
28/11:30am 26.9 ESE 16 23 1015.6 - 0.0 - - - - - - -
28/11:00am 26.2 ESE 16 22 1015.9 - 0.0 - - - - - - -
28/10:30am 25.9 SE 17 25 1016.1 - 0.0 - - - - - - -
28/10:21am 26.6 SE 15 25 1016.1 - 0.0 - - - - - - -
28/10:00am 25.7 ESE 14 20 1016.2 - 0.0 - - - - - - -
28/09:30am 25.2 SE 16 21 1016.0 - 0.0 - Partly cloudy - - - - -
28/09:00am 25.3 SE 15 20 1015.9 - 0.0 Fine Partly cloudy 30 - - - -
28/08:30am 23.9 ESE 16 20 1015.7 - 0.0 - Partly cloudy - - - - -
28/08:00am 23.2 SSE 8 11 1015.5 - 0.0 - Partly cloudy - - - - -
28/07:30am 22.3 SSE 6 8 1015.3 - 0.0 - Partly cloudy - - - - -
28/07:00am 21.0 SE 5 7 1014.8 - 0.0 - Partly cloudy - - - - -
28/06:30am 20.9 SE 6 8 1014.6 - 0.0 - - - - - - -
28/06:00am 21.7 SE 8 11 1014.2 - 0.0 - Partly cloudy - - - - -
28/05:30am 21.5 SE 8 11 1014.2 - 0.0 - Partly cloudy - - - - -
28/05:00am 17.6 CALM 0 5 1014.1 - 0.0 - Partly cloudy - - - - -
28/04:30am 17.3 W 2 4 1013.9 - 0.0 - Partly cloudy - - - - -
28/04:00am 17.1 CALM 0 0 1013.8 - 0.0 - Partly cloudy - - - - -
28/03:30am 17.2 CALM 0 0 1013.8 - 0.0 - Partly cloudy - - - - -
28/03:00am 17.6 CALM 0 0 1013.9 - 0.0 - Partly cloudy - - - - -
28/02:30am 18.1 CALM 0 0 1014.3 - 0.0 - Partly cloudy - - - - -
28/02:00am 18.2 CALM 0 0 1014.5 - 0.0 - Partly cloudy - - - - -
28/01:30am 18.0 CALM 0 0 1014.8 - 0.0 - Cloudy - - - - -
28/01:00am 17.7 CALM 0 0 1015.0 - 0.0 - Partly cloudy - - - - -
28/12:30am 17.8 CALM 0 0 1015.3 - 0.0 - Cloudy - - - - -
28/12:00am 17.8 CALM 0 0 1015.4 - 0.0 - Partly cloudy - - - - -
 
Date/Time
EST
Temp

°C
Wind Pressure Rain
since 9am
mm
Weather Cloud Vis
km
Sea
Height
m
Swell
Dir
 
Speed
knots
Gust
knots
hPa Trend Height
m
Period
s
Dir
27/11:30pm 18.1 CALM 0 0 1015.7 - 0.0 - Partly cloudy - - - - -
27/11:00pm 18.3 CALM 0 0 1015.7 - 0.0 - Partly cloudy - - - - -
27/10:30pm 18.8 CALM 0 0 1015.7 - 0.0 - Partly cloudy - - - - -
27/10:00pm 19.2 CALM 0 0 1015.5 - 0.0 - Cloudy - - - - -
27/09:30pm 19.6 CALM 0 0 1015.4 - 0.0 - Partly cloudy - - - - -
27/09:00pm 20.5 S 4 5 1014.9 - 0.0 - Partly cloudy - - - - -
27/08:30pm 21.7 SE 4 6 1014.7 - 0.0 - - - - - - -
27/08:00pm 22.4 SE 7 9 1014.4 - 0.0 - - - - - - -
27/07:30pm 22.7 SE 7 10 1014.2 - 0.0 - - - - - - -
27/07:00pm 23.0 SE 7 9 1013.8 - 0.0 - Partly cloudy - - - - -
27/06:30pm 23.7 SE 11 16 1013.6 - 0.0 - Partly cloudy - - - - -
27/06:00pm 23.9 ESE 12 17 1013.3 - 0.0 - Cloudy - - - - -
27/05:30pm 24.5 SE 13 18 1013.2 - 0.0 - Cloudy - - - - -
27/05:00pm 24.8 ESE 15 19 1013.1 - 0.0 - Partly cloudy - - - - -
27/04:30pm 26.5 SE 14 22 1012.9 - 0.0 - Partly cloudy - - - - -
27/04:00pm 25.6 ESE 14 20 1012.9 - 0.0 - Partly cloudy - - - - -
27/03:30pm 26.1 ESE 15 19 1012.6 - 0.0 - Partly cloudy - - - - -
27/03:00pm 26.5 ESE 16 23 1012.6 - 0.0 Fine Partly cloudy 30 - - - -
27/02:30pm 27.1 ESE 14 23 1013.1 - 0.0 - Partly cloudy - - - - -
27/02:00pm 26.7 ESE 16 21 1013.4 - 0.0 - Partly cloudy - - - - -
27/01:30pm 27.0 ESE 15 22 1013.7 - 0.0 - Partly cloudy - - - - -
27/01:00pm 27.7 ESE 16 23 1014.1 - 0.0 - Partly cloudy - - - - -
27/12:30pm 27.0 ESE 15 22 1014.6 - 0.0 - Partly cloudy - - - - -
27/12:00pm 27.9 ESE 15 24 1014.9 - 0.0 - Partly cloudy - - - - -
27/11:30am 27.0 ESE 14 20 1015.1 - 0.0 - Partly cloudy - - - - -
27/11:00am 26.6 SE 15 21 1015.4 - 0.0 - Partly cloudy - - - - -
27/10:30am 27.1 SE 16 22 1015.9 - 0.0 - Partly cloudy - - - - -
27/10:00am 25.6 SE 15 21 1015.8 - 0.0 - Partly cloudy - - - - -
27/09:30am 26.5 SE 13 18 1015.8 - 0.0 - Partly cloudy - - - - -
27/09:00am 25.0 SE 13 19 1015.4 - 0.0 Fine Partly cloudy 30 - - - -
27/08:30am 24.4 SE 11 16 1015.3 - 0.0 - Partly cloudy - - - - -
27/08:00am 21.7 SSE 5 7 1015.0 - 0.0 - Partly cloudy - - - - -
27/07:30am 19.8 CALM 0 0 1014.7 - 0.0 - Partly cloudy - - - - -
27/07:00am 18.4 CALM 0 0 1014.3 - 0.0 - Partly cloudy - - - - -
27/06:30am 18.3 CALM 0 0 1014.0 - 0.0 - Partly cloudy - - - - -
27/06:00am 18.6 CALM 0 0 1013.7 - 0.0 - Partly cloudy - - - - -
27/05:30am 18.9 CALM 0 0 1013.7 - 0.0 - Partly cloudy - - - - -
27/05:00am 18.8 CALM 0 0 1013.5 - 0.0 - Partly cloudy - - - - -
27/04:30am 18.2 CALM 0 0 1013.5 - 0.0 - Partly cloudy - - - - -

Other Formats:

Comma delimited format used in spreadsheet applications
http://www.bom.gov.au/fwo/IDQ60701/IDQ60701.94186.axf

JavaScript Object Notation format (JSON) in row-major order
http://www.bom.gov.au/fwo/IDQ60701/IDQ60701.94186.json